createdAt,value
2019-01-08T00:07:31.926Z,98.00
2019-01-08T00:17:37.251Z,98.30
2019-01-08T00:27:42.682Z,98.40
2019-01-08T00:37:48.006Z,98.30
2019-01-08T00:47:53.338Z,97.90
2019-01-08T00:57:58.812Z,97.80
2019-01-08T01:08:04.164Z,97.60
2019-01-08T01:18:09.546Z,97.50
2019-01-08T01:28:14.992Z,97.60
2019-01-08T01:38:20.428Z,97.40
2019-01-08T01:48:25.760Z,97.40
2019-01-08T01:58:31.058Z,97.90
2019-01-08T02:08:36.347Z,98.00
2019-01-08T02:18:41.608Z,98.10
2019-01-08T02:28:46.962Z,98.20
2019-01-08T02:38:52.380Z,98.20
2019-01-08T02:48:57.699Z,98.30
2019-01-08T02:59:03.082Z,98.60
2019-01-08T03:09:08.394Z,98.60
2019-01-08T03:19:13.776Z,98.60
2019-01-08T03:29:19.087Z,98.70
2019-01-08T03:39:24.429Z,98.80
2019-01-08T03:49:29.761Z,98.40
2019-01-08T03:59:41.911Z,97.60
2019-01-08T04:09:42.052Z,97.20
2019-01-08T04:19:47.354Z,97.40
2019-01-08T04:29:52.683Z,97.60
2019-01-08T04:39:57.997Z,97.40
2019-01-08T04:50:03.312Z,97.20
2019-01-08T05:00:09.182Z,97.50
2019-01-08T05:10:14.606Z,97.30
2019-01-08T05:20:19.891Z,97.30
2019-01-08T05:30:25.336Z,97.30
2019-01-08T05:40:30.651Z,97.40
2019-01-08T05:50:36.058Z,97.80
2019-01-08T06:00:41.365Z,98.20
2019-01-08T06:10:46.796Z,98.00
2019-01-08T06:20:52.480Z,98.10
2019-01-08T06:30:57.804Z,98.50
2019-01-08T06:41:03.152Z,98.80
2019-01-08T06:51:08.504Z,99.00
2019-01-08T07:01:13.925Z,99.40
2019-01-08T07:11:19.270Z,99.50
2019-01-08T07:21:24.632Z,99.40
2019-01-08T07:31:31.207Z,99.90
2019-01-08T07:41:36.672Z,99.90
2019-01-08T07:51:42.219Z,99.90
2019-01-08T08:01:47.834Z,99.90
2019-01-08T08:11:53.184Z,99.90
2019-01-08T08:21:58.602Z,99.90
2019-01-08T08:32:05.402Z,99.90
2019-01-08T08:42:10.988Z,99.90
2019-01-08T08:52:16.758Z,99.90
2019-01-08T09:02:22.493Z,99.90
2019-01-08T09:12:27.818Z,99.90
2019-01-08T09:22:33.311Z,99.90
2019-01-08T09:32:38.744Z,99.90
2019-01-08T09:42:44.220Z,99.90
2019-01-08T09:52:49.551Z,99.90
2019-01-08T10:02:55.020Z,99.90
2019-01-08T10:13:00.343Z,99.90
2019-01-08T10:23:10.028Z,99.90
2019-01-08T10:33:12.851Z,99.90
2019-01-08T10:43:18.270Z,99.90
2019-01-08T10:53:23.581Z,99.90
2019-01-08T11:03:28.938Z,99.90
2019-01-08T11:13:34.286Z,99.90
2019-01-08T11:23:39.674Z,99.90
2019-01-08T11:33:45.290Z,99.90
2019-01-08T11:43:50.599Z,99.90
2019-01-08T11:53:56.137Z,99.90
2019-01-08T12:04:01.659Z,99.90
2019-01-08T12:14:07.045Z,99.90
2019-01-08T12:24:12.599Z,99.90
2019-01-08T12:34:18.190Z,99.90
2019-01-08T12:44:24.075Z,99.90
2019-01-08T12:54:29.317Z,99.90
2019-01-08T13:04:34.857Z,99.90
2019-01-08T13:14:40.276Z,99.90
2019-01-08T13:24:45.564Z,99.90
2019-01-08T13:34:51.000Z,99.90
2019-01-08T13:44:56.490Z,99.90
2019-01-08T13:55:02.072Z,99.90
2019-01-08T14:05:08.276Z,99.90
2019-01-08T14:15:13.610Z,99.90
2019-01-08T14:25:19.276Z,99.90
2019-01-08T14:35:24.694Z,99.90
2019-01-08T14:45:30.230Z,99.90
2019-01-08T14:55:36.043Z,99.90
2019-01-08T15:05:42.242Z,99.90
2019-01-08T15:15:48.667Z,99.90
2019-01-08T15:25:56.525Z,99.90
2019-01-08T15:36:02.845Z,99.90
2019-01-08T15:46:10.349Z,99.90
2019-01-08T15:56:15.693Z,99.90
2019-01-08T16:06:20.992Z,99.90
2019-01-08T16:16:26.330Z,99.90
2019-01-08T16:26:31.930Z,99.90
2019-01-08T16:36:37.269Z,99.90
2019-01-08T16:46:43.061Z,99.90
2019-01-08T16:56:48.345Z,99.90
2019-01-08T17:06:53.834Z,99.90
2019-01-08T17:16:59.223Z,99.90
2019-01-08T17:27:04.677Z,99.90
2019-01-08T17:37:10.987Z,99.90
2019-01-08T17:47:16.399Z,99.90
2019-01-08T17:57:21.822Z,99.90
2019-01-08T18:07:27.277Z,99.90
2019-01-08T18:17:32.618Z,99.90
2019-01-08T18:27:37.957Z,99.90
2019-01-08T18:37:43.335Z,99.90
2019-01-08T18:47:48.868Z,99.90
2019-01-08T18:57:54.164Z,99.90
2019-01-08T19:07:59.482Z,99.90
2019-01-08T19:18:04.852Z,99.90
2019-01-08T19:28:10.174Z,99.90
2019-01-08T19:38:15.486Z,99.90
2019-01-08T19:48:20.958Z,99.90
2019-01-08T19:58:26.296Z,99.90
2019-01-08T20:08:31.846Z,99.90
2019-01-08T20:18:45.002Z,99.90
2019-01-08T20:28:45.110Z,99.90
2019-01-08T20:38:50.498Z,99.90
2019-01-08T20:48:55.956Z,99.90
2019-01-08T23:10:05.714Z,99.90
2019-01-08T23:40:21.596Z,99.90
2019-01-08T23:50:26.929Z,99.90
